Time;durP1;ratioP1;P1;durP2;ratioP2;P2;SDS_P1;SDS_P2;PMS_P1;PMS_P2;Temp;Humidity;BMP_temperature;BMP_pressure;BME280_temperature;BME280_humidity;BME280_pressure;Samples;Min_cycle;Max_cycle;Signal;HPM_P1;HPM_P2
2021/07/19 00:00:04;;;;;;;117.65;62.58;;;;;;;;;;5010804;28;20064;-57
2021/07/19 00:02:30;;;;;;;124.95;63.08;;;;;;;;;;5010172;28;20049;-54
2021/07/19 00:04:56;;;;;;;120.30;60.13;;;;;;;;;;5011302;28;20044;-56
2021/07/19 00:07:23;;;;;;;127.25;62.22;;;;;;;;;;5009991;28;20036;-54
2021/07/19 00:09:49;;;;;;;133.15;62.53;;;;;;;;;;5012518;28;20551;-56
2021/07/19 00:12:15;;;;;;;120.05;59.08;;;;;;;;;;5009706;28;20045;-56
2021/07/19 00:14:42;;;;;;;124.15;60.70;;;;;;;;;;5010360;28;22754;-54
2021/07/19 00:17:08;;;;;;;114.50;60.00;;;;;;;;;;5009988;28;20048;-55
2021/07/19 00:19:34;;;;;;;114.57;58.40;;;;;;;;;;5008972;28;20072;-56
2021/07/19 00:22:00;;;;;;;114.07;57.55;;;;;;;;;;5010313;28;20474;-55
2021/07/19 00:24:26;;;;;;;110.57;57.63;;;;;;;;;;5010584;28;20037;-55
2021/07/19 00:26:52;;;;;;;117.35;57.03;;;;;;;;;;5009876;28;20048;-56
2021/07/19 00:29:17;;;;;;;112.22;56.03;;;;;;;;;;5009317;28;20056;-52
2021/07/19 00:31:43;;;;;;;121.32;55.58;;;;;;;;;;5009424;28;20078;-55
2021/07/19 00:34:09;;;;;;;117.47;58.45;;;;;;;;;;5008554;28;20045;-56
2021/07/19 00:36:35;;;;;;;109.05;55.53;;;;;;;;;;5010328;28;20042;-55
2021/07/19 00:39:01;;;;;;;117.30;55.55;;;;;;;;;;5009362;28;20046;-53
2021/07/19 00:41:27;;;;;;;110.47;55.08;;;;;;;;;;5010209;28;20053;-55
2021/07/19 00:43:53;;;;;;;106.75;55.55;;;;;;;;;;5010477;28;20034;-55
2021/07/19 00:46:19;;;;;;;108.95;54.80;;;;;;;;;;5012004;28;20124;-55
2021/07/19 00:48:45;;;;;;;116.55;55.83;;;;;;;;;;5009376;28;20038;-53
2021/07/19 00:51:11;;;;;;;102.47;51.65;;;;;;;;;;5009479;28;20507;-58
2021/07/19 00:53:38;;;;;;;106.50;54.88;;;;;;;;;;5009263;28;20915;-55
2021/07/19 00:56:05;;;;;;;115.43;54.30;;;;;;;;;;5009745;28;20046;-54
2021/07/19 00:58:32;;;;;;;104.85;52.92;;;;;;;;;;5009597;28;20045;-55
2021/07/19 01:00:59;;;;;;;112.43;54.15;;;;;;;;;;5008875;28;20038;-53
2021/07/19 01:03:26;;;;;;;110.43;54.30;;;;;;;;;;5009268;28;20033;-53
2021/07/19 01:05:53;;;;;;;109.45;53.20;;;;;;;;;;5010507;28;20116;-55
2021/07/19 01:08:19;;;;;;;111.20;53.40;;;;;;;;;;5009062;28;20069;-54
2021/07/19 01:10:46;;;;;;;110.32;53.72;;;;;;;;;;5010241;28;20133;-53
2021/07/19 01:13:11;;;;;;;106.55;54.05;;;;;;;;;;5007471;28;21907;-54
2021/07/19 01:15:38;;;;;;;112.28;55.47;;;;;;;;;;5007739;28;20081;-54
2021/07/19 01:18:05;;;;;;;113.25;52.63;;;;;;;;;;5008643;28;20041;-54
2021/07/19 01:20:37;;;;;;;113.20;52.55;;;;;;;;;;5009226;28;20041;-54
2021/07/19 01:23:03;;;;;;;108.90;51.63;;;;;;;;;;5009731;28;20052;-55
2021/07/19 01:25:47;;;;;;;98.53;51.55;;;;;;;;;;5008922;28;20038;-54
2021/07/19 01:28:31;;;;;;;109.88;54.80;;;;;;;;;;5009692;28;20033;-55
2021/07/19 01:31:01;;;;;;;114.00;54.20;;;;;;;;;;5009567;28;20045;-57
2021/07/19 01:33:27;;;;;;;107.72;54.38;;;;;;;;;;5015732;28;20669;-54
2021/07/19 01:35:55;;;;;;;105.68;54.53;;;;;;;;;;5010164;28;20506;-56
2021/07/19 01:38:21;;;;;;;108.22;52.95;;;;;;;;;;5008341;28;20068;-56
2021/07/19 01:40:47;;;;;;;115.35;56.55;;;;;;;;;;5007683;28;20058;-54
2021/07/19 01:43:13;;;;;;;130.88;59.33;;;;;;;;;;5009571;28;20091;-57
2021/07/19 01:45:39;;;;;;;112.88;53.92;;;;;;;;;;5010198;28;20048;-54
2021/07/19 01:48:06;;;;;;;108.57;54.67;;;;;;;;;;5012029;28;20045;-54
2021/07/19 01:50:32;;;;;;;115.55;55.72;;;;;;;;;;5014704;28;20127;-57
2021/07/19 01:52:58;;;;;;;109.45;55.00;;;;;;;;;;5010669;28;20045;-56
2021/07/19 01:55:24;;;;;;;111.70;54.95;;;;;;;;;;5013196;28;20428;-56
2021/07/19 01:57:50;;;;;;;111.57;55.00;;;;;;;;;;5010359;28;20057;-56
2021/07/19 02:00:17;;;;;;;111.22;55.08;;;;;;;;;;5009613;28;20040;-57
2021/07/19 02:02:43;;;;;;;107.13;52.97;;;;;;;;;;5011655;28;20457;-56
2021/07/19 02:05:10;;;;;;;111.82;54.85;;;;;;;;;;5011084;28;20128;-55
2021/07/19 02:07:37;;;;;;;118.03;54.72;;;;;;;;;;5014594;28;20589;-57
2021/07/19 02:10:05;;;;;;;109.88;54.63;;;;;;;;;;5011640;28;20033;-55
2021/07/19 02:12:31;;;;;;;110.82;53.90;;;;;;;;;;5016190;28;20037;-56
2021/07/19 02:14:57;;;;;;;113.40;55.70;;;;;;;;;;5016109;28;20104;-56
2021/07/19 02:17:24;;;;;;;116.70;53.30;;;;;;;;;;5010125;28;20073;-56
2021/07/19 02:19:50;;;;;;;104.78;50.58;;;;;;;;;;5012297;28;20040;-55
2021/07/19 02:22:18;;;;;;;111.55;52.55;;;;;;;;;;5010574;28;20045;-54
2021/07/19 02:24:45;;;;;;;115.80;54.08;;;;;;;;;;5011853;28;20030;-56
2021/07/19 02:27:11;;;;;;;101.35;49.75;;;;;;;;;;5008353;28;20061;-56
2021/07/19 02:29:37;;;;;;;117.38;52.88;;;;;;;;;;5016604;28;20039;-54
2021/07/19 02:32:03;;;;;;;109.75;51.53;;;;;;;;;;5015661;28;20060;-57
2021/07/19 02:34:30;;;;;;;96.10;50.25;;;;;;;;;;5009656;28;20474;-55
2021/07/19 02:36:57;;;;;;;98.28;50.80;;;;;;;;;;5008949;28;20124;-57
2021/07/19 02:39:23;;;;;;;112.55;52.13;;;;;;;;;;5008069;28;20080;-55
2021/07/19 02:41:49;;;;;;;104.40;50.05;;;;;;;;;;5009287;28;20051;-57
2021/07/19 02:44:16;;;;;;;107.88;53.35;;;;;;;;;;5010590;28;20534;-53
2021/07/19 02:46:42;;;;;;;99.35;50.75;;;;;;;;;;5009358;28;20037;-55
2021/07/19 02:49:10;;;;;;;117.30;53.25;;;;;;;;;;5010332;28;20091;-57
2021/07/19 02:51:38;;;;;;;108.97;50.95;;;;;;;;;;5010563;28;20050;-54
2021/07/19 02:54:04;;;;;;;107.63;51.97;;;;;;;;;;5008779;28;20725;-56
2021/07/19 02:56:33;;;;;;;111.40;53.58;;;;;;;;;;5007908;28;20038;-55
2021/07/19 02:58:59;;;;;;;113.57;54.67;;;;;;;;;;5006917;28;20054;-56
2021/07/19 03:01:25;;;;;;;114.85;52.20;;;;;;;;;;5009698;28;20568;-55
2021/07/19 03:03:54;;;;;;;107.20;52.75;;;;;;;;;;5010868;28;20062;-55
2021/07/19 03:06:21;;;;;;;108.00;54.40;;;;;;;;;;5011483;28;20084;-55
2021/07/19 03:08:48;;;;;;;122.90;54.08;;;;;;;;;;5009975;28;20084;-54
2021/07/19 03:11:25;;;;;;;113.43;54.50;;;;;;;;;;5010294;28;20802;-56
2021/07/19 03:13:54;;;;;;;105.22;51.65;;;;;;;;;;5010642;28;20041;-56
2021/07/19 03:16:21;;;;;;;104.13;52.05;;;;;;;;;;5007686;28;20041;-56
2021/07/19 03:18:47;;;;;;;113.15;55.08;;;;;;;;;;5006550;28;20057;-54
2021/07/19 03:21:15;;;;;;;114.15;53.35;;;;;;;;;;5009567;28;20038;-54
2021/07/19 03:23:41;;;;;;;114.90;54.30;;;;;;;;;;5008839;28;20507;-56
2021/07/19 03:26:07;;;;;;;107.45;55.28;;;;;;;;;;5008740;28;20443;-56
2021/07/19 03:28:33;;;;;;;106.47;53.97;;;;;;;;;;5007883;28;20041;-53
2021/07/19 03:30:59;;;;;;;112.45;55.55;;;;;;;;;;5008947;28;20046;-57
2021/07/19 03:33:26;;;;;;;112.38;55.42;;;;;;;;;;5010073;28;20061;-55
2021/07/19 03:35:52;;;;;;;110.65;51.83;;;;;;;;;;5008841;28;20045;-55
2021/07/19 03:38:19;;;;;;;117.63;59.13;;;;;;;;;;5008294;28;20050;-55
2021/07/19 03:40:45;;;;;;;115.43;55.30;;;;;;;;;;5009265;28;20050;-56
2021/07/19 03:43:11;;;;;;;109.28;52.88;;;;;;;;;;5007047;28;20120;-56
2021/07/19 03:45:37;;;;;;;106.95;51.22;;;;;;;;;;5004592;28;20042;-56
2021/07/19 03:48:03;;;;;;;112.03;53.47;;;;;;;;;;5007440;28;20408;-54
2021/07/19 03:50:31;;;;;;;112.88;53.75;;;;;;;;;;5006646;28;20065;-55
2021/07/19 03:52:57;;;;;;;116.50;55.97;;;;;;;;;;5010809;28;20041;-55
2021/07/19 03:55:23;;;;;;;114.35;54.17;;;;;;;;;;5010194;28;20049;-56
2021/07/19 03:57:50;;;;;;;108.78;52.50;;;;;;;;;;5007209;28;20053;-53
2021/07/19 04:00:16;;;;;;;115.55;53.85;;;;;;;;;;5009863;28;20793;-55
2021/07/19 04:02:44;;;;;;;117.40;54.25;;;;;;;;;;5008398;28;20096;-57
2021/07/19 04:05:14;;;;;;;106.35;53.05;;;;;;;;;;5011356;28;20120;-56
2021/07/19 04:07:42;;;;;;;113.22;54.08;;;;;;;;;;5012434;28;20052;-51
2021/07/19 04:10:08;;;;;;;108.10;50.63;;;;;;;;;;5013657;28;20046;-55
2021/07/19 04:12:35;;;;;;;107.60;52.15;;;;;;;;;;5021579;28;20411;-55
2021/07/19 04:15:01;;;;;;;97.60;52.80;;;;;;;;;;5016275;28;20055;-54
2021/07/19 04:17:27;;;;;;;99.65;51.63;;;;;;;;;;5013391;28;20667;-55
2021/07/19 04:19:53;;;;;;;114.75;52.55;;;;;;;;;;5013085;28;20049;-55
2021/07/19 04:22:19;;;;;;;102.45;51.10;;;;;;;;;;5011763;28;20101;-55
2021/07/19 04:24:45;;;;;;;104.20;51.40;;;;;;;;;;5011583;28;20041;-54
2021/07/19 04:27:13;;;;;;;106.97;51.70;;;;;;;;;;5013073;28;20056;-53
2021/07/19 04:29:38;;;;;;;102.05;50.22;;;;;;;;;;5010253;28;20053;-53
2021/07/19 04:32:04;;;;;;;104.10;51.58;;;;;;;;;;5013051;28;20140;-53
2021/07/19 04:34:34;;;;;;;111.53;56.97;;;;;;;;;;5013167;28;20414;-52
2021/07/19 04:37:03;;;;;;;116.30;57.30;;;;;;;;;;5011045;28;20126;-54
2021/07/19 04:39:29;;;;;;;129.10;58.88;;;;;;;;;;5010451;28;20127;-56
2021/07/19 04:41:55;;;;;;;127.10;57.85;;;;;;;;;;5010875;28;20045;-54
2021/07/19 04:44:21;;;;;;;125.88;58.55;;;;;;;;;;5009902;28;20041;-56
2021/07/19 04:46:50;;;;;;;121.03;58.10;;;;;;;;;;5012170;28;20550;-54
2021/07/19 04:49:16;;;;;;;137.25;57.85;;;;;;;;;;5008150;28;20108;-55
2021/07/19 04:51:43;;;;;;;123.05;59.20;;;;;;;;;;5011403;28;20041;-55
2021/07/19 04:54:09;;;;;;;115.88;57.05;;;;;;;;;;5014356;28;20041;-55
2021/07/19 04:56:35;;;;;;;125.22;60.33;;;;;;;;;;5014816;28;20121;-56
2021/07/19 04:59:02;;;;;;;123.95;59.03;;;;;;;;;;5012367;28;20048;-54
2021/07/19 05:01:29;;;;;;;131.40;60.47;;;;;;;;;;5013347;28;22060;-52
2021/07/19 05:03:56;;;;;;;128.60;59.25;;;;;;;;;;5011693;28;20179;-55
2021/07/19 05:06:26;;;;;;;123.93;59.15;;;;;;;;;;5010409;28;20045;-52
2021/07/19 05:08:52;;;;;;;127.50;61.08;;;;;;;;;;5010513;28;20144;-54
2021/07/19 05:11:20;;;;;;;131.05;61.42;;;;;;;;;;5010966;28;20438;-53
2021/07/19 05:13:46;;;;;;;128.98;61.42;;;;;;;;;;5011425;28;20096;-55
2021/07/19 05:16:12;;;;;;;127.10;60.20;;;;;;;;;;5009266;28;20049;-55
2021/07/19 05:18:39;;;;;;;125.05;61.08;;;;;;;;;;5009033;28;20107;-54
2021/07/19 05:21:05;;;;;;;136.80;62.05;;;;;;;;;;5013871;28;20403;-55
2021/07/19 05:23:31;;;;;;;133.82;61.40;;;;;;;;;;5010828;28;20045;-55
2021/07/19 05:25:57;;;;;;;134.60;61.80;;;;;;;;;;5011494;28;20056;-52
2021/07/19 05:28:23;;;;;;;141.98;62.97;;;;;;;;;;5008414;28;20124;-56
2021/07/19 05:30:50;;;;;;;130.45;61.03;;;;;;;;;;5010594;28;20098;-55
2021/07/19 05:33:17;;;;;;;131.43;62.15;;;;;;;;;;5011067;28;20037;-56
2021/07/19 05:35:43;;;;;;;149.88;63.78;;;;;;;;;;5010622;28;20045;-56
2021/07/19 05:38:09;;;;;;;127.55;61.72;;;;;;;;;;5009369;28;20069;-55
2021/07/19 05:40:35;;;;;;;135.55;59.78;;;;;;;;;;5008885;28;20144;-56
2021/07/19 05:43:01;;;;;;;140.35;63.47;;;;;;;;;;5010008;28;20046;-53
2021/07/19 05:45:27;;;;;;;135.40;63.30;;;;;;;;;;5009483;28;20080;-56
2021/07/19 05:47:54;;;;;;;131.70;62.88;;;;;;;;;;5009105;28;20042;-55
2021/07/19 05:50:20;;;;;;;135.30;63.78;;;;;;;;;;5008243;28;20037;-53
2021/07/19 05:52:45;;;;;;;131.70;61.35;;;;;;;;;;5010157;28;20030;-54
2021/07/19 05:55:12;;;;;;;142.02;66.60;;;;;;;;;;5012277;28;20520;-53
2021/07/19 05:57:38;;;;;;;130.63;59.85;;;;;;;;;;5008738;28;20060;-55
2021/07/19 06:00:10;;;;;;;137.75;63.40;;;;;;;;;;5010332;28;20160;-54
2021/07/19 06:02:35;;;;;;;129.85;63.15;;;;;;;;;;5008842;28;20037;-52
2021/07/19 06:05:01;;;;;;;132.88;63.90;;;;;;;;;;5010008;28;20080;-55
2021/07/19 06:07:27;;;;;;;129.70;62.90;;;;;;;;;;5009659;28;20895;-54
2021/07/19 06:09:53;;;;;;;148.10;63.63;;;;;;;;;;5008133;28;20083;-52
2021/07/19 06:12:19;;;;;;;132.70;63.50;;;;;;;;;;5004548;28;20030;-53
2021/07/19 06:14:45;;;;;;;133.35;63.30;;;;;;;;;;5009544;28;20094;-55
2021/07/19 06:17:12;;;;;;;142.75;65.60;;;;;;;;;;5008734;28;20057;-55
2021/07/19 06:19:39;;;;;;;137.70;66.90;;;;;;;;;;5007239;28;20064;-53
2021/07/19 06:22:05;;;;;;;133.68;65.43;;;;;;;;;;5009052;28;20156;-53
2021/07/19 06:24:31;;;;;;;145.65;66.88;;;;;;;;;;5009995;28;20038;-53
2021/07/19 06:26:57;;;;;;;133.32;63.70;;;;;;;;;;5010607;28;20147;-55
2021/07/19 06:29:23;;;;;;;138.65;64.60;;;;;;;;;;5009427;28;20380;-56
2021/07/19 06:31:49;;;;;;;128.65;60.72;;;;;;;;;;5009983;28;20042;-55
2021/07/19 06:34:15;;;;;;;133.77;65.30;;;;;;;;;;5009926;28;20045;-55
2021/07/19 06:36:41;;;;;;;144.40;65.32;;;;;;;;;;5007063;28;20049;-52
2021/07/19 06:39:08;;;;;;;143.70;66.93;;;;;;;;;;5009342;28;20055;-56
2021/07/19 06:41:34;;;;;;;139.57;65.82;;;;;;;;;;5008880;28;20056;-55
2021/07/19 06:44:00;;;;;;;134.15;66.22;;;;;;;;;;5009087;28;20041;-53
2021/07/19 06:46:25;;;;;;;138.65;64.20;;;;;;;;;;5008632;28;20510;-55
2021/07/19 06:48:51;;;;;;;138.70;65.80;;;;;;;;;;5011160;28;20037;-55
2021/07/19 06:51:17;;;;;;;138.02;64.70;;;;;;;;;;5007379;28;20041;-54
2021/07/19 06:53:43;;;;;;;133.88;66.95;;;;;;;;;;5008250;28;20555;-53
2021/07/19 06:56:09;;;;;;;130.23;63.53;;;;;;;;;;5010365;28;20046;-54
2021/07/19 06:58:35;;;;;;;142.07;66.32;;;;;;;;;;5007120;28;22329;-53
2021/07/19 07:01:01;;;;;;;123.07;61.40;;;;;;;;;;5011696;28;20146;-55
2021/07/19 07:03:26;;;;;;;134.63;64.43;;;;;;;;;;5008002;28;20441;-53
2021/07/19 07:05:52;;;;;;;126.78;61.97;;;;;;;;;;5009885;28;20140;-53
2021/07/19 07:08:18;;;;;;;129.68;62.05;;;;;;;;;;5008754;28;20494;-55
2021/07/19 07:10:44;;;;;;;135.75;63.10;;;;;;;;;;5010020;28;20755;-52
2021/07/19 07:13:10;;;;;;;132.48;62.40;;;;;;;;;;5008975;28;20042;-53
2021/07/19 07:15:37;;;;;;;136.73;66.35;;;;;;;;;;5008050;28;20166;-54
2021/07/19 07:18:04;;;;;;;142.02;67.10;;;;;;;;;;5008507;28;20203;-56
2021/07/19 07:20:29;;;;;;;134.32;65.57;;;;;;;;;;5009789;28;20055;-54
2021/07/19 07:22:55;;;;;;;139.55;66.70;;;;;;;;;;5009429;28;20041;-52
2021/07/19 07:25:21;;;;;;;139.95;68.50;;;;;;;;;;5009772;28;20585;-52
2021/07/19 07:27:47;;;;;;;136.25;64.93;;;;;;;;;;5008748;28;20056;-52
2021/07/19 07:30:13;;;;;;;140.45;69.88;;;;;;;;;;5008510;28;20571;-55
2021/07/19 07:32:38;;;;;;;142.07;66.85;;;;;;;;;;5006484;28;20046;-54
2021/07/19 07:35:04;;;;;;;146.70;66.43;;;;;;;;;;5008914;28;20125;-55
2021/07/19 07:37:34;;;;;;;144.43;65.00;;;;;;;;;;5007420;28;20067;-54
2021/07/19 07:40:00;;;;;;;136.85;66.80;;;;;;;;;;5011978;28;20044;-54
2021/07/19 07:42:28;;;;;;;149.00;67.68;;;;;;;;;;5011731;28;20037;-54
2021/07/19 07:44:54;;;;;;;133.90;65.13;;;;;;;;;;5013823;28;20034;-55
2021/07/19 07:47:20;;;;;;;134.52;68.18;;;;;;;;;;5011352;28;20458;-55
2021/07/19 07:49:48;;;;;;;140.77;66.43;;;;;;;;;;5011855;28;20045;-56
2021/07/19 07:52:15;;;;;;;139.88;66.03;;;;;;;;;;5012357;28;20037;-55
2021/07/19 07:54:41;;;;;;;146.70;68.70;;;;;;;;;;5010697;28;20167;-51
2021/07/19 07:57:07;;;;;;;145.38;68.03;;;;;;;;;;5011466;28;20514;-52
2021/07/19 07:59:33;;;;;;;140.48;65.70;;;;;;;;;;5011287;28;20046;-52
2021/07/19 08:01:59;;;;;;;139.57;65.65;;;;;;;;;;5013243;28;20087;-55
2021/07/19 08:04:28;;;;;;;128.13;62.35;;;;;;;;;;5013485;28;20045;-53
2021/07/19 08:06:55;;;;;;;146.38;66.45;;;;;;;;;;5012336;28;20112;-54
2021/07/19 08:09:20;;;;;;;134.60;62.92;;;;;;;;;;5012854;28;20056;-53
2021/07/19 08:11:46;;;;;;;140.40;64.43;;;;;;;;;;5013231;28;20038;-55
2021/07/19 08:14:12;;;;;;;142.27;64.70;;;;;;;;;;5013077;28;20072;-56
2021/07/19 08:16:39;;;;;;;141.10;63.90;;;;;;;;;;5012340;28;20038;-52
2021/07/19 08:19:06;;;;;;;145.25;64.00;;;;;;;;;;5011249;28;20145;-55
2021/07/19 08:21:32;;;;;;;132.52;64.38;;;;;;;;;;5014152;28;20080;-54
2021/07/19 08:23:57;;;;;;;134.20;63.63;;;;;;;;;;5013549;28;20041;-55
2021/07/19 08:26:23;;;;;;;130.18;62.42;;;;;;;;;;5013899;28;20891;-55
2021/07/19 08:28:52;;;;;;;132.32;63.70;;;;;;;;;;5013380;28;20046;-56
2021/07/19 08:31:18;;;;;;;137.25;64.03;;;;;;;;;;5015157;28;20030;-56
2021/07/19 08:33:43;;;;;;;136.13;63.35;;;;;;;;;;5028690;28;20517;-55
2021/07/19 08:36:09;;;;;;;146.40;66.30;;;;;;;;;;5015527;28;20049;-54
2021/07/19 08:38:35;;;;;;;125.47;64.18;;;;;;;;;;5014817;28;21022;-53
2021/07/19 08:41:01;;;;;;;145.75;64.00;;;;;;;;;;5017738;28;20099;-55
2021/07/19 08:43:27;;;;;;;145.60;64.95;;;;;;;;;;5021423;28;20037;-54
2021/07/19 08:45:53;;;;;;;142.55;65.68;;;;;;;;;;5017768;28;20061;-54
2021/07/19 08:48:18;;;;;;;145.90;64.30;;;;;;;;;;5018576;28;20494;-53
2021/07/19 08:50:46;;;;;;;150.73;63.35;;;;;;;;;;5013813;28;20045;-57
2021/07/19 08:53:12;;;;;;;142.30;64.85;;;;;;;;;;5015068;28;20038;-54
2021/07/19 08:55:38;;;;;;;139.23;64.15;;;;;;;;;;5016142;28;20052;-50
2021/07/19 08:58:04;;;;;;;157.57;64.03;;;;;;;;;;5016245;28;20046;-54
2021/07/19 09:00:30;;;;;;;131.50;62.50;;;;;;;;;;5017949;28;20422;-54
2021/07/19 09:02:56;;;;;;;140.50;61.28;;;;;;;;;;5015390;28;20041;-52
2021/07/19 09:05:22;;;;;;;125.03;61.72;;;;;;;;;;5014192;28;20037;-54
2021/07/19 09:07:50;;;;;;;149.95;62.58;;;;;;;;;;5016303;28;20045;-52
2021/07/19 09:10:22;;;;;;;147.73;66.90;;;;;;;;;;5014726;28;20065;-53
2021/07/19 09:12:48;;;;;;;136.32;61.45;;;;;;;;;;5015185;28;20042;-51
2021/07/19 09:15:14;;;;;;;138.20;62.78;;;;;;;;;;5014301;28;20034;-53
2021/07/19 09:17:40;;;;;;;142.80;64.13;;;;;;;;;;5012812;28;20065;-52
2021/07/19 09:20:09;;;;;;;142.00;63.55;;;;;;;;;;5011689;28;20044;-53
2021/07/19 09:22:35;;;;;;;140.38;61.35;;;;;;;;;;5026272;28;20157;-51
2021/07/19 09:25:07;;;;;;;151.77;65.60;;;;;;;;;;5012432;28;20064;-55
2021/07/19 09:27:33;;;;;;;136.32;59.65;;;;;;;;;;5009809;28;20669;-53
2021/07/19 09:29:59;;;;;;;141.02;62.53;;;;;;;;;;5010965;28;20046;-55
2021/07/19 09:32:25;;;;;;;140.18;65.07;;;;;;;;;;5009693;28;20805;-54
2021/07/19 09:34:50;;;;;;;135.63;62.00;;;;;;;;;;5011875;28;20124;-53
2021/07/19 09:37:17;;;;;;;138.65;62.75;;;;;;;;;;5010424;28;20533;-54
2021/07/19 09:39:52;;;;;;;135.90;62.40;;;;;;;;;;5009786;28;20148;-54
2021/07/19 09:42:20;;;;;;;160.55;62.50;;;;;;;;;;5009737;28;20438;-54
2021/07/19 09:44:53;;;;;;;150.00;62.85;;;;;;;;;;5008916;28;20044;-53
2021/07/19 09:47:19;;;;;;;130.18;60.38;;;;;;;;;;5009228;28;20038;-54
2021/07/19 09:49:46;;;;;;;140.23;63.97;;;;;;;;;;5010920;28;20034;-54
2021/07/19 09:52:13;;;;;;;140.68;63.75;;;;;;;;;;5011457;28;20042;-52
2021/07/19 09:54:39;;;;;;;141.35;61.85;;;;;;;;;;5009709;28;20140;-55
2021/07/19 09:57:06;;;;;;;156.60;65.13;;;;;;;;;;5008429;28;20247;-53
2021/07/19 09:59:33;;;;;;;166.75;65.07;;;;;;;;;;5009057;28;20042;-54
2021/07/19 10:02:01;;;;;;;139.57;62.80;;;;;;;;;;5009986;28;20071;-53
2021/07/19 10:04:26;;;;;;;155.05;61.20;;;;;;;;;;5011048;28;20045;-55
2021/07/19 10:06:55;;;;;;;147.55;63.03;;;;;;;;;;5009850;28;20581;-50
2021/07/19 10:09:22;;;;;;;165.70;62.65;;;;;;;;;;5009336;28;20554;-55
2021/07/19 10:11:49;;;;;;;139.35;61.55;;;;;;;;;;5008556;28;22002;-54
2021/07/19 10:14:23;;;;;;;150.23;65.43;;;;;;;;;;5009471;28;20072;-53
2021/07/19 10:16:49;;;;;;;141.75;61.58;;;;;;;;;;5008309;28;20484;-54
2021/07/19 10:19:15;;;;;;;148.10;61.40;;;;;;;;;;5010612;28;20045;-55
2021/07/19 10:21:41;;;;;;;145.55;62.00;;;;;;;;;;5012043;28;20042;-54
2021/07/19 10:24:08;;;;;;;157.32;62.33;;;;;;;;;;5012759;28;20038;-52
2021/07/19 10:26:35;;;;;;;152.48;59.30;;;;;;;;;;5011209;28;20038;-53
2021/07/19 10:29:01;;;;;;;165.65;58.75;;;;;;;;;;5011118;28;20061;-53
2021/07/19 10:31:28;;;;;;;146.32;63.35;;;;;;;;;;5009826;28;20048;-55
2021/07/19 10:33:55;;;;;;;156.52;60.78;;;;;;;;;;5011792;28;20085;-54
2021/07/19 10:36:25;;;;;;;135.68;58.13;;;;;;;;;;5009452;28;20037;-51
2021/07/19 10:38:53;;;;;;;149.90;61.22;;;;;;;;;;5010874;28;20054;-53
2021/07/19 10:41:22;;;;;;;141.85;60.97;;;;;;;;;;5011666;28;20041;-54
2021/07/19 10:43:57;;;;;;;137.80;57.53;;;;;;;;;;5012192;28;20072;-53
2021/07/19 10:46:25;;;;;;;129.52;58.42;;;;;;;;;;5009674;28;20038;-53
2021/07/19 10:49:01;;;;;;;132.30;59.72;;;;;;;;;;5009376;28;20036;-54
2021/07/19 10:51:37;;;;;;;123.40;57.53;;;;;;;;;;5009445;28;20056;-53
2021/07/19 10:54:10;;;;;;;129.25;58.90;;;;;;;;;;5006099;28;20048;-55
2021/07/19 10:56:36;;;;;;;153.40;59.50;;;;;;;;;;5006897;28;20041;-54
2021/07/19 10:59:02;;;;;;;133.43;59.10;;;;;;;;;;5009994;28;20146;-53
2021/07/19 11:01:29;;;;;;;140.20;58.60;;;;;;;;;;5008924;28;20480;-51
2021/07/19 11:03:56;;;;;;;136.27;59.38;;;;;;;;;;5009872;28;20125;-51
2021/07/19 11:06:36;;;;;;;133.52;59.90;;;;;;;;;;5007630;28;20522;-52
2021/07/19 11:09:10;;;;;;;126.78;59.95;;;;;;;;;;5009873;28;20045;-56
2021/07/19 11:11:37;;;;;;;140.13;59.67;;;;;;;;;;5009654;28;20126;-55
2021/07/19 11:14:04;;;;;;;135.45;59.45;;;;;;;;;;5009491;28;20044;-55
2021/07/19 11:16:45;;;;;;;139.27;60.65;;;;;;;;;;5011181;28;20040;-55
2021/07/19 11:19:11;;;;;;;134.05;59.03;;;;;;;;;;5010222;28;20479;-54
2021/07/19 11:21:37;;;;;;;124.43;59.80;;;;;;;;;;5008714;28;20053;-55
2021/07/19 11:24:07;;;;;;;137.25;58.25;;;;;;;;;;5010451;28;20156;-55
2021/07/19 11:26:33;;;;;;;125.97;60.40;;;;;;;;;;5006374;28;20040;-54
2021/07/19 11:28:59;;;;;;;128.50;59.03;;;;;;;;;;5008559;28;20052;-53
2021/07/19 11:31:25;;;;;;;129.50;60.72;;;;;;;;;;5008545;28;20052;-52
2021/07/19 11:34:01;;;;;;;138.98;57.47;;;;;;;;;;5009568;28;20033;-54
2021/07/19 11:36:28;;;;;;;134.80;60.70;;;;;;;;;;5008245;28;20034;-55
2021/07/19 11:38:56;;;;;;;118.32;58.05;;;;;;;;;;5009451;28;20149;-55
2021/07/19 11:41:26;;;;;;;124.18;59.53;;;;;;;;;;5009442;28;20049;-55
2021/07/19 11:43:53;;;;;;;123.50;57.40;;;;;;;;;;5016416;28;20554;-55
2021/07/19 11:46:40;;;;;;;144.40;60.47;;;;;;;;;;5022994;28;20029;-55
2021/07/19 11:49:09;;;;;;;133.77;57.35;;;;;;;;;;5025637;28;20030;-55
2021/07/19 11:51:37;;;;;;;124.53;56.72;;;;;;;;;;5026056;28;20282;-55
2021/07/19 11:54:03;;;;;;;120.18;56.90;;;;;;;;;;5021923;28;20042;-52
2021/07/19 11:56:29;;;;;;;123.63;58.15;;;;;;;;;;5015120;28;20037;-54
2021/07/19 11:58:57;;;;;;;125.07;58.35;;;;;;;;;;5013826;28;20094;-54
2021/07/19 12:01:23;;;;;;;130.25;60.05;;;;;;;;;;5009662;28;20034;-51
2021/07/19 12:03:52;;;;;;;130.20;59.15;;;;;;;;;;5012925;28;20071;-54
2021/07/19 12:06:18;;;;;;;142.15;59.85;;;;;;;;;;5012141;28;20457;-53
2021/07/19 12:08:50;;;;;;;148.73;61.95;;;;;;;;;;5008582;28;20041;-52
2021/07/19 12:11:15;;;;;;;136.48;60.97;;;;;;;;;;5006975;28;20061;-56
2021/07/19 12:13:42;;;;;;;136.75;60.22;;;;;;;;;;5008922;28;20490;-56
2021/07/19 12:16:09;;;;;;;146.98;62.53;;;;;;;;;;5008557;28;20042;-56
2021/07/19 12:18:46;;;;;;;119.70;58.42;;;;;;;;;;5006988;28;20864;-54
2021/07/19 12:21:13;;;;;;;149.05;58.50;;;;;;;;;;5007601;28;20034;-55
2021/07/19 12:23:40;;;;;;;132.70;58.05;;;;;;;;;;5007392;28;20045;-55
2021/07/19 12:26:06;;;;;;;126.93;58.80;;;;;;;;;;5010296;28;20030;-53
2021/07/19 12:28:32;;;;;;;128.38;60.22;;;;;;;;;;5010522;28;20499;-53
2021/07/19 12:31:27;;;;;;;128.00;58.63;;;;;;;;;;5011279;28;20274;-53
2021/07/19 12:33:53;;;;;;;130.30;57.05;;;;;;;;;;5006100;28;20057;-57
2021/07/19 12:36:20;;;;;;;132.30;56.72;;;;;;;;;;5009550;28;20513;-55
2021/07/19 12:38:46;;;;;;;127.15;59.70;;;;;;;;;;5012371;28;20124;-55
2021/07/19 12:41:14;;;;;;;122.65;57.05;;;;;;;;;;5009873;28;20116;-56
2021/07/19 12:43:41;;;;;;;121.88;56.17;;;;;;;;;;5012216;28;20132;-53
2021/07/19 12:46:09;;;;;;;127.43;59.72;;;;;;;;;;5011715;28;20041;-51
2021/07/19 12:48:34;;;;;;;125.63;58.60;;;;;;;;;;5011798;28;20741;-55
2021/07/19 12:51:03;;;;;;;135.32;56.58;;;;;;;;;;5011095;28;20049;-54
2021/07/19 12:53:36;;;;;;;132.43;58.60;;;;;;;;;;5011123;28;20056;-54
2021/07/19 12:56:14;;;;;;;123.32;56.22;;;;;;;;;;5012629;28;20084;-53
2021/07/19 12:58:51;;;;;;;131.52;58.10;;;;;;;;;;5011407;28;20045;-55
2021/07/19 13:01:16;;;;;;;125.20;56.03;;;;;;;;;;5014478;28;20071;-52
2021/07/19 13:03:42;;;;;;;131.32;57.33;;;;;;;;;;5013982;28;20030;-53
2021/07/19 13:06:08;;;;;;;131.27;60.08;;;;;;;;;;5010182;28;20038;-54
2021/07/19 13:08:36;;;;;;;129.57;56.45;;;;;;;;;;5009193;28;20061;-56
2021/07/19 13:11:12;;;;;;;142.85;60.03;;;;;;;;;;5010375;28;20045;-54
2021/07/19 13:13:38;;;;;;;147.77;57.28;;;;;;;;;;5022000;28;20064;-56
2021/07/19 13:16:04;;;;;;;118.03;56.00;;;;;;;;;;5010157;28;20503;-56
2021/07/19 13:18:32;;;;;;;127.20;55.95;;;;;;;;;;5010040;28;20187;-58
2021/07/19 13:21:02;;;;;;;117.22;52.80;;;;;;;;;;5009947;28;20045;-56
2021/07/19 13:23:32;;;;;;;120.85;56.20;;;;;;;;;;5011537;28;20947;-55
2021/07/19 13:26:04;;;;;;;128.13;54.95;;;;;;;;;;5009924;28;20038;-57
2021/07/19 13:28:30;;;;;;;117.03;54.23;;;;;;;;;;5010303;28;20083;-55
2021/07/19 13:31:00;;;;;;;122.80;52.53;;;;;;;;;;5010052;28;20034;-55
2021/07/19 13:33:26;;;;;;;116.97;55.67;;;;;;;;;;5011300;28;20128;-55
2021/07/19 13:35:52;;;;;;;128.82;54.50;;;;;;;;;;5008995;28;20048;-55
2021/07/19 13:38:18;;;;;;;133.98;56.95;;;;;;;;;;5009642;28;20050;-52
2021/07/19 13:40:48;;;;;;;128.60;54.55;;;;;;;;;;5009067;28;20064;-52
2021/07/19 13:43:14;;;;;;;113.28;55.35;;;;;;;;;;5010727;28;20042;-54
2021/07/19 13:45:40;;;;;;;129.05;56.88;;;;;;;;;;5010125;28;20042;-55
2021/07/19 13:48:06;;;;;;;128.20;55.95;;;;;;;;;;5010259;28;20045;-56
2021/07/19 13:50:33;;;;;;;126.43;58.00;;;;;;;;;;5008106;28;20816;-56
2021/07/19 13:52:59;;;;;;;120.45;53.65;;;;;;;;;;5008925;28;22020;-56
2021/07/19 13:55:25;;;;;;;124.75;56.15;;;;;;;;;;5007220;28;20046;-52
2021/07/19 13:57:50;;;;;;;128.73;57.15;;;;;;;;;;5008487;28;20067;-55
2021/07/19 14:00:19;;;;;;;136.63;56.40;;;;;;;;;;5010865;28;20045;-56
2021/07/19 14:02:45;;;;;;;114.82;54.17;;;;;;;;;;5009704;28;20974;-55